METAR Data
IDs: Format: Raw Decoded Include TAF

Data at: 0205 UTC 24 Sep 2018

KFKA 240155Z AUTO 14008KT 10SM CLR 15/10 A3004 RMK AO2 T01540102
KFKA 240136Z AUTO 14008KT 10SM CLR 16/10 A3004 RMK AO2 T01570102
KFKA 240115Z AUTO 14006KT 10SM CLR 16/10 A3004 RMK AO2 T01600102
KFKA 240055Z AUTO 14006KT 10SM CLR 17/10 A3003 RMK AO2 T01670102
KFKA 240035Z AUTO 14007KT 10SM CLR 17/10 A3002 RMK AO2 T01710100
KFKA 240015Z AUTO 14006KT 10SM CLR 18/10 A3003 RMK AO2 T01760097
KFKA 232355Z AUTO 15006KT 10SM CLR 19/10 A3002 RMK AO2 T01870096 10227 20187
KFKA 232335Z AUTO 14007KT 10SM CLR 20/10 A3001 RMK AO2 T01970096
KFKA 232315Z AUTO 14009KT 10SM CLR 21/10 A3002 RMK AO2 T02050098
KFKA 232255Z AUTO 14011G15KT 10SM CLR 21/10 A3002 RMK AO2 T02110100
KFKA 232235Z AUTO 14011KT 10SM CLR 22/10 A3002 RMK AO2 T02190101
KFKA 232215Z AUTO 16011G17KT 10SM CLR 22/10 A3002 RMK AO2 T02210100
KFKA 232155Z AUTO 16010G16KT 10SM CLR 23/10 A3002 RMK AO2 T02250096
KFKA 232135Z AUTO 16013G17KT 10SM CLR 23/09 A3002 RMK AO2 T02250093
KFKA 232115Z AUTO 14012G15KT 10SM CLR 23/10 A3002 RMK AO2 T02260095
KFKA 232055Z AUTO 15010KT 10SM CLR 23/10 A3002 RMK AO2 T02250097
KFKA 232035Z AUTO 16011G16KT 10SM CLR 23/10 A3003 RMK AO2 T02260096
KFKA 232015Z AUTO 14011G15KT 10SM CLR 23/10 A3004 RMK AO2 T02260096
KFKA 231955Z AUTO 15011KT 10SM CLR 23/10 A3004 RMK AO2 T02250098
KFKA 231935Z AUTO 16009G16KT 10SM CLR 22/10 A3005 RMK AO2 T02220097
KFKA 231915Z AUTO 17011G15KT 10SM CLR 22/10 A3006 RMK AO2 T02210100
KFKA 231855Z AUTO 16009G14KT 10SM CLR 22/10 A3007 RMK AO2 T02200099
KFKA 231835Z AUTO 16010G16KT 10SM CLR 22/10 A3008 RMK AO2 T02160096
KFKA 231815Z AUTO 20010KT 10SM CLR 21/10 A3008 RMK AO2 T02090103
KFKA 231755Z AUTO 17011KT 10SM CLR 21/10 A3009 RMK AO2 T02090104 10209 20079
KFKA 231735Z AUTO 17010KT 10SM CLR 20/10 A3009 RMK AO2 T02020101
KFKA 231715Z AUTO 18010G17KT 10SM CLR 20/11 A3010 RMK AO2 T01980105
KFKA 231655Z AUTO 18010G16KT 10SM CLR 20/11 A3011 RMK AO2 T01960108
KFKA 231635Z AUTO 19009KT 10SM CLR 19/10 A3011 RMK AO2 T01900102
KFKA 231615Z AUTO 17012KT 10SM CLR 18/10 A3012 RMK AO2 T01820103
KFKA 231555Z AUTO 20012KT 10SM CLR 18/11 A3013 RMK AO2 T01770105
KFKA 231535Z AUTO 19008KT 10SM CLR 17/11 A3013 RMK AO2 T01700105
KFKA 231515Z AUTO 17007KT 150V210 10SM CLR 17/11 A3013 RMK AO2 T01650105
KFKA 231455Z AUTO 20007KT 10SM CLR 15/10 A3013 RMK AO2 T01540104
KFKA 231435Z AUTO 15006KT 10SM CLR 14/10 A3013 RMK AO2 T01400102
KFKA 231415Z AUTO 16006KT 10SM CLR 13/10 A3013 RMK AO2 T01290099
KFKA 231355Z AUTO 16004KT 10SM CLR 12/09 A3013 RMK AO2 T01190092
KFKA 231335Z AUTO 17005KT 10SM CLR 11/09 A3013 RMK AO2 T01100087
KFKA 231315Z AUTO 17005KT 10SM CLR 10/08 A3013 RMK AO2 T01000082
KFKA 231255Z AUTO 16005KT 10SM CLR 09/08 A3012 RMK AO2 T00920077
KFKA 231235Z AUTO 17004KT 10SM CLR 09/07 A3012 RMK AO2 T00850072
KFKA 231215Z AUTO 18005KT 10SM CLR 08/07 A3012 RMK AO2 T00840069
KFKA 231156Z AUTO 18004KT 10SM CLR 08/07 A3012 RMK AO2 T00780065 10096 20078
KFKA 231135Z AUTO 19004KT 10SM CLR 08/07 A3011 RMK AO2 T00820070
KFKA 231115Z AUTO 18005KT 10SM CLR 08/07 A3010 RMK AO2 T00820069
KFKA 231056Z AUTO 18006KT 10SM CLR 08/07 A3010 RMK AO2 T00800069
KFKA 231035Z AUTO 17005KT 10SM CLR 08/07 A3011 RMK AO2 T00800067
KFKA 231015Z AUTO 17006KT 10SM CLR 08/07 A3010 RMK AO2 T00830068
KFKA 230955Z AUTO 18005KT 10SM CLR 09/07 A3011 RMK AO2 T00850070
KFKA 230935Z AUTO 18005KT 10SM CLR 09/07 A3011 RMK AO2 T00850070
KFKA 230915Z AUTO 18006KT 10SM CLR 09/07 A3010 RMK AO2 T00900072
KFKA 230855Z AUTO 19005KT 10SM CLR 09/07 A3011 RMK AO2 T00880072
KFKA 230835Z AUTO 17005KT 10SM CLR 09/07 A3011 RMK AO2 T00870070
KFKA 230815Z AUTO 18005KT 10SM CLR 09/07 A3011 RMK AO2 T00920074
KFKA 230755Z AUTO 18005KT 10SM CLR 09/07 A3011 RMK AO2 T00910071
KFKA 230735Z AUTO 20004KT 10SM CLR 10/07 A3012 RMK AO2 T00950074
KFKA 230715Z AUTO 18005KT 10SM CLR 09/07 A3012 RMK AO2 T00930073
KFKA 230655Z AUTO 17006KT 10SM CLR 10/07 A3012 RMK AO2 T00950073
KFKA 230635Z AUTO 17006KT 10SM CLR 10/08 A3013 RMK AO2 T00960075
KFKA 230615Z AUTO 17005KT 10SM CLR 09/07 A3013 RMK AO2 T00920071
KFKA 230555Z AUTO 18005KT 10SM CLR 10/07 A3013 RMK AO2 T00960071 10144 20093 401820026
KFKA 230535Z AUTO 17004KT 10SM CLR 10/07 A3014 RMK AO2 T00950070
KFKA 230515Z AUTO 17006KT 10SM CLR 09/07 A3014 RMK AO2 T00930070
KFKA 230455Z AUTO 19006KT 10SM SCT120 10/07 A3013 RMK AO2 T00950070
KFKA 230435Z AUTO 18005KT 10SM CLR 10/07 A3014 RMK AO2 T00950068
KFKA 230415Z AUTO 17005KT 10SM CLR 10/07 A3014 RMK AO2 T00980070
KFKA 230355Z AUTO 16004KT 10SM CLR 10/07 A3013 RMK AO2 T01000070
KFKA 230335Z AUTO 16004KT 10SM CLR 10/07 A3013 RMK AO2 T00970069
KFKA 230315Z AUTO 17004KT 10SM CLR 10/07 A3014 RMK AO2 T01030071
KFKA 230255Z AUTO 17005KT 10SM CLR 11/07 A3014 RMK AO2 T01060072
KFKA 230235Z AUTO 17004KT 10SM CLR 11/07 A3014 RMK AO2 T01060073
KFKA 230215Z AUTO 17005KT 10SM CLR 11/07 A3014 RMK AO2 T01120072
KFKA 230155Z AUTO 16003KT 10SM CLR 11/07 A3014 RMK AO2 T01140074
KFKA 230135Z AUTO 17004KT 10SM CLR 12/07 A3014 RMK AO2 T01210072
KFKA 230115Z AUTO 18004KT 10SM CLR 12/07 A3014 RMK AO2 T01220073
KFKA 230055Z AUTO 20005KT 10SM CLR 13/07 A3014 RMK AO2 T01300070
KFKA 230035Z AUTO 16003KT 10SM CLR 13/07 A3014 RMK AO2 T01340069
KFKA 230016Z AUTO 16004KT 10SM CLR 14/07 A3014 RMK AO2 T01370068
KFKA 222355Z AUTO 17005KT 10SM CLR 15/07 A3014 RMK AO2 T01460069 10182 20146
KFKA 222335Z AUTO 17005KT 10SM CLR 16/07 A3014 RMK AO2 T01560068
KFKA 222315Z AUTO 17006KT 10SM CLR 16/07 A3014 RMK AO2 T01640070
KFKA 222255Z AUTO 17010KT 10SM CLR 17/06 A3014 RMK AO2 T01700060
KFKA 222235Z AUTO 17010KT 10SM CLR 18/06 A3015 RMK AO2 T01750058
KFKA 222215Z AUTO 17010KT 10SM CLR 18/06 A3015 RMK AO2 T01760058
KFKA 222155Z AUTO 17009KT 10SM CLR 18/06 A3016 RMK AO2 T01800057
KFKA 222135Z AUTO 17011KT 10SM CLR 18/05 A3016 RMK AO2 T01800050
KFKA 222115Z AUTO 18010KT 10SM CLR 18/06 A3017 RMK AO2 T01820058
KFKA 222055Z AUTO 17010G15KT 10SM CLR 18/06 A3018 RMK AO2 T01810058
KFKA 222035Z AUTO 17010KT 10SM CLR 18/05 A3019 RMK AO2 T01770046
KFKA 222015Z AUTO 18008KT 10SM CLR 18/05 A3020 RMK AO2 T01760047
KFKA 221955Z AUTO 17008G14KT 10SM CLR 17/05 A3021 RMK AO2 T01730048
KFKA 221935Z AUTO 17008G16KT 10SM CLR 17/05 A3022 RMK AO2 T01700052
KFKA 221915Z AUTO 17007KT 10SM CLR 17/05 A3023 RMK AO2 T01690048
KFKA 221855Z AUTO 16009G15KT 10SM CLR 16/05 A3024 RMK AO2 T01640050
KFKA 221835Z AUTO 19010KT 10SM CLR 16/04 A3025 RMK AO2 T01610042
KFKA 221815Z AUTO 16010KT 10SM CLR 16/04 A3026 RMK AO2 T01550044
KFKA 221755Z AUTO 20008KT 160V220 10SM CLR 15/04 A3027 RMK AO2 T01530039 10153 20026
KFKA 221735Z AUTO 19009G14KT 160V220 10SM CLR 15/03 A3028 RMK AO2 T01500030
KFKA 221715Z AUTO 18011G16KT 10SM CLR 15/03 A3029 RMK AO2 T01450031
KFKA 221655Z AUTO 16008KT 10SM CLR 14/04 A3030 RMK AO2 T01400039
KFKA 221635Z AUTO 17013G18KT 10SM CLR 13/03 A3030 RMK AO2 T01330030
KFKA 221615Z AUTO 18010G16KT 10SM CLR 13/04 A3031 RMK AO2 T01300038
KFKA 221555Z AUTO 15013G18KT 10SM CLR 13/04 A3031 RMK AO2 T01250037
KFKA 221535Z AUTO 15012G17KT 10SM CLR 12/04 A3032 RMK AO2 T01170040
KFKA 221515Z AUTO 16012G18KT 10SM CLR 11/04 A3033 RMK AO2 T01100038
KFKA 221455Z AUTO 15013KT 10SM CLR 11/04 A3033 RMK AO2 T01050037
KFKA 221435Z AUTO 16012KT 10SM CLR 10/05 A3033 RMK AO2 T01000046
KFKA 221415Z AUTO 15007KT 10SM CLR 09/06 A3033 RMK AO2 T00900055